Date,TemperatureHighF,TemperatureAvgF,TemperatureLowF,DewpointHighF,DewpointAvgF,DewpointLowF,HumidityHigh,HumidityAvg,HumidityLow,PressureMaxIn,PressureMinIn,WindSpeedMaxMPH,WindSpeedAvgMPH,GustSpeedMaxMPH,PrecipitationSumIn
2012-1-1,55.3,47.0,41.7,40.0,37.6,36.3,82,70,56,30.19,29.99,16,11,26,0.00
2012-1-2,54.6,49.7,45.5,49.2,44.3,35.0,96,83,53,30.29,29.95,23,12,48,0.06
2012-1-3,55.0,51.2,48.8,50.6,46.6,42.4,97,85,69,30.32,30.17,11,7,24,0.03
2012-1-4,56.2,51.8,48.8,49.6,46.0,40.8,97,82,57,30.34,30.18,20,12,35,0.39
2012-1-5,49.7,45.4,36.4,48.0,42.4,33.8,97,90,75,30.48,30.34,9,4,15,0.00
2012-1-6,44.7,39.7,34.8,41.3,37.5,32.8,100,92,84,30.37,30.31,7,3,13,0.10
2012-1-7,49.4,43.7,40.8,46.6,42.0,39.6,96,94,88,30.47,30.35,10,5,18,0.00
2012-1-8,57.1,46.6,40.7,44.4,40.4,37.1,92,80,61,30.41,30.25,11,7,18,0.00
2012-1-9,48.2,44.4,39.4,46.0,42.0,36.1,96,91,82,30.34,30.23,12,4,22,0.07
2012-1-10,45.8,41.3,33.1,41.8,35.6,29.7,93,80,66,30.49,30.34,10,5,19,0.00
2012-1-11,41.6,35.1,31.8,31.5,29.9,26.4,91,82,56,30.40,30.32,11,4,16,0.00
2012-1-12,51.4,45.6,41.8,35.5,25.2,22.0,63,45,36,30.26,30.21,13,5,20,0.00
2012-1-13,53.8,44.6,38.8,42.5,30.1,22.0,78,57,38,30.25,30.11,10,4,19,0.00
2012-1-14,47.0,43.2,36.5,44.4,38.8,31.0,96,85,64,30.16,30.08,22,12,28,0.08
2012-1-15,40.4,36.7,31.5,36.0,32.9,29.7,95,86,73,30.18,30.06,21,8,32,0.10
2012-1-16,41.4,35.5,29.7,38.8,33.5,28.4,96,92,82,30.26,30.14,20,7,28,0.22
2012-1-17,46.1,42.6,39.4,45.0,40.4,36.8,96,92,85,30.15,29.93,32,15,45,0.94
2012-1-18,48.8,46.6,42.8,48.0,45.4,40.9,97,96,93,29.93,29.63,32,20,61,1.67
2012-1-19,50.1,48.8,47.9,50.0,48.2,47.4,100,97,97,29.79,29.47,24,15,51,1.56
2012-1-20,53.3,49.9,47.3,52.1,49.0,46.2,100,97,93,29.79,29.19,23,12,43,0.67
2012-1-21,47.2,44.8,41.0,46.1,40.9,37.8,96,86,72,29.98,29.28,24,12,35,0.22
2012-1-22,49.2,44.5,37.1,46.8,40.6,35.5,95,86,70,29.91,29.54,25,10,51,0.32
2012-1-23,49.4,41.0,35.5,41.3,37.3,33.7,95,87,65,30.08,29.86,9,5,14,0.00
2012-1-24,51.5,47.1,40.7,50.4,45.4,37.7,97,94,87,30.19,29.91,23,14,43,1.31
2012-1-25,50.7,49.4,48.4,50.0,48.4,47.3,100,96,94,30.41,30.16,12,7,21,0.05
2012-1-26,50.2,42.7,35.2,49.4,39.6,32.3,98,89,75,30.62,30.15,17,5,23,0.02
2012-1-27,46.9,39.1,33.1,39.0,33.1,29.6,91,79,53,30.61,30.46,16,6,28,0.00
2012-1-28,60.1,45.8,37.7,45.2,35.6,29.8,83,69,42,30.48,30.21,10,5,18,0.00
2012-1-29,53.4,48.6,43.7,48.3,43.3,27.3,97,84,39,30.22,29.97,27,10,38,1.12
2012-1-30,48.8,46.2,43.8,45.5,43.7,42.3,97,91,82,30.17,30.08,13,3,20,0.04
2012-1-31,50.2,46.6,44.6,44.3,42.3,39.8,95,85,75,30.12,29.91,8,4,14,0.18
2012-2-1,47.9,45.5,41.9,45.9,42.3,39.8,96,89,75,30.44,29.90,16,5,25,0.04
2012-2-2,56.2,48.0,41.4,40.7,36.9,30.4,91,68,42,30.44,30.04,22,10,37,0.00
2012-2-3,61.9,50.4,40.8,45.6,33.9,26.0,92,56,31,30.12,29.98,22,11,35,0.00
2012-2-4,62.8,49.6,39.6,43.4,34.2,30.6,92,57,35,30.13,30.04,16,8,31,0.00
2012-2-5,58.5,49.4,43.2,41.7,34.7,31.6,66,57,44,30.18,29.98,13,9,23,0.00
2012-2-6,60.5,52.8,47.0,33.6,31.1,27.4,53,44,35,29.98,29.68,19,15,33,0.00
2012-2-7,54.7,50.3,45.0,47.1,35.0,27.0,92,59,38,30.00,29.68,21,9,33,0.06
2012-2-8,51.8,49.1,47.0,50.1,47.0,43.4,96,92,83,30.24,30.00,9,6,17,0.75
2012-2-9,59.5,54.2,50.9,51.9,48.4,41.3,94,82,52,30.24,29.99,13,7,23,0.05
2012-2-10,55.2,49.1,44.9,50.1,46.3,41.8,97,91,67,30.14,29.94,17,7,34,0.07
2012-2-11,48.9,43.8,37.1,43.1,40.0,35.3,95,87,77,30.26,30.14,9,3,13,0.00
2012-2-12,45.0,40.4,36.4,42.4,38.6,35.0,96,93,87,30.17,29.91,7,4,15,0.33
2012-2-13,47.5,42.9,39.5,43.3,40.5,38.2,96,91,81,30.13,29.94,7,2,12,0.04
2012-2-14,45.2,41.0,36.7,41.2,37.4,34.6,95,87,77,30.25,30.04,25,7,47,0.19
2012-2-15,49.3,40.5,32.6,41.5,36.4,31.3,96,86,65,30.40,30.25,10,5,15,0.00
2012-2-16,46.4,42.8,39.3,45.3,39.9,35.1,96,90,83,30.33,30.24,10,4,16,0.06
2012-2-17,48.7,47.2,44.4,48.2,45.4,38.8,98,94,78,30.25,30.07,20,9,30,0.19
2012-2-18,47.0,44.7,39.5,42.4,39.0,35.3,92,80,74,30.26,30.18,24,12,34,0.07
2012-2-19,47.9,42.0,36.0,39.1,36.4,33.6,93,81,61,30.22,29.90,12,6,19,0.15
2012-2-20,48.2,46.7,40.2,47.7,45.6,38.3,98,96,90,30.19,29.86,14,8,22,0.36
2012-2-21,48.4,48.0,47.6,48.2,47.5,47.1,100,98,98,30.38,30.20,13,10,25,0.38
2012-2-22,48.5,47.0,43.6,48.2,44.8,39.2,100,92,80,30.47,30.29,15,10,24,0.34
2012-2-23,47.0,42.7,36.5,41.1,38.0,34.4,95,84,75,30.51,30.32,9,3,12,0.00
2012-2-24,50.0,43.4,38.0,45.7,37.0,-99.9,96,82,53,30.33,29.80,31,-1,46,0.25
2012-2-25,45.1,30.8,38.4,37.5,-0.2,-99.9,90,58,62,30.41,30.00,25,-254,45,0.11
2012-2-26,43.1,39.4,34.3,39.5,36.0,32.3,94,88,72,30.37,30.14,13,4,20,0.11
2012-2-27,44.9,37.7,30.2,38.5,33.5,28.4,94,85,75,30.16,29.99,8,3,15,0.11
2012-2-28,44.0,38.7,34.4,39.7,33.9,-99.9,95,86,75,29.99,29.53,29,-3,44,0.63
2012-2-29,44.0,40.7,36.5,39.6,37.1,33.6,94,87,74,29.91,29.65,26,15,40,0.32
2012-3-1,46.5,41.4,36.1,40.6,37.0,34.0,94,84,75,30.44,29.86,20,6,30,0.04
2012-3-2,48.2,43.6,36.6,41.9,39.1,34.8,94,84,73,30.51,30.43,9,5,19,0.04
2012-3-3,50.3,46.5,42.9,48.5,45.2,41.8,100,95,90,30.50,30.39,6,3,10,0.02
2012-3-4,52.8,45.3,37.2,46.5,42.2,36.2,97,89,73,30.39,30.11,7,3,17,0.01
2012-3-5,46.5,42.7,36.7,45.7,40.9,33.7,97,93,78,30.10,29.91,19,8,34,0.43
2012-3-6,45.6,40.1,34.3,36.3,31.6,27.8,90,72,56,30.38,30.08,16,6,30,0.04
2012-3-7,47.0,38.8,29.4,36.9,31.6,26.3,91,76,54,30.48,30.27,12,4,17,0.04
2012-3-8,62.3,48.7,43.4,46.1,38.9,31.5,89,70,40,30.33,30.17,18,10,31,0.00
2012-3-9,50.0,47.2,45.2,44.3,42.6,40.6,93,84,73,30.33,30.07,15,9,25,0.00
2012-3-10,48.1,45.0,43.3,45.2,43.1,41.3,97,93,84,30.07,29.73,15,9,34,0.45
2012-3-11,46.2,42.9,39.5,42.0,38.6,35.2,94,85,68,29.88,29.68,22,11,33,0.14
2012-3-12,48.1,41.3,32.3,44.7,37.9,31.0,95,88,68,29.74,29.37,27,12,54,0.39
2012-3-13,43.6,38.3,32.2,37.1,28.8,-99.9,96,77,65,29.90,29.50,26,-31,38,0.60
2012-3-14,44.8,41.8,38.1,42.0,38.6,34.9,90,88,84,29.86,29.77,13,8,30,0.11
2012-3-15,49.7,48.3,47.0,48.3,46.8,44.2,96,95,90,29.78,29.71,22,12,38,0.43
2012-3-16,49.7,39.1,42.7,45.4,21.3,-99.9,93,75,77,29.77,29.37,18,-144,28,0.26
2012-3-17,47.9,41.2,38.2,40.4,35.2,-99.9,94,85,74,29.70,29.42,16,-19,25,0.06
2012-3-18,44.1,39.8,36.1,37.3,33.9,28.9,94,80,55,29.91,29.67,17,6,26,0.03
2012-3-19,43.4,40.2,35.6,42.1,37.3,32.5,95,89,82,29.92,29.76,15,6,26,0.07
2012-3-20,47.3,44.6,39.1,46.0,42.2,36.7,97,91,83,30.06,29.75,24,13,42,0.40
2012-3-21,39.0,35.5,33.3,37.6,34.3,32.3,97,95,91,30.07,29.86,7,3,13,0.56
2012-3-22,46.1,40.3,34.8,40.6,37.4,33.8,97,90,79,30.05,29.91,9,5,15,0.02
2012-3-23,54.8,45.6,35.2,39.9,35.4,32.6,93,70,45,29.97,29.79,16,7,29,0.02
2012-3-24,51.4,47.3,43.6,44.3,39.0,34.7,92,74,57,29.95,29.78,15,8,28,0.00
2012-3-25,46.2,43.8,40.3,43.7,41.6,38.2,96,92,89,29.89,29.77,13,3,20,0.24
2012-3-26,52.7,44.7,37.8,45.4,39.8,35.3,93,83,60,29.85,29.67,12,6,23,0.10
2012-3-27,53.9,48.0,44.5,48.0,44.5,41.7,92,88,76,29.67,29.50,17,9,37,0.30
2012-3-28,49.7,46.7,43.0,45.9,43.5,40.6,93,89,83,29.87,29.61,21,13,40,0.30
2012-3-29,51.4,49.5,47.0,50.0,47.7,44.3,97,93,88,29.75,29.52,28,18,57,0.95
2012-3-30,49.7,45.4,38.7,48.9,43.8,37.1,98,94,87,29.84,29.49,19,11,40,0.56
2012-3-31,54.2,45.5,40.4,47.7,42.1,38.6,96,88,65,29.76,29.28,26,11,38,0.78
2012-4-1,49.7,45.4,41.3,45.4,41.2,36.7,93,85,73,30.27,29.77,25,12,38,0.18
2012-4-2,59.7,49.9,43.1,46.0,42.0,38.7,91,75,49,30.27,29.94,13,8,28,0.18
2012-4-3,51.7,46.1,40.1,45.2,41.2,38.0,98,84,66,30.02,29.82,21,7,30,0.44
2012-4-4,47.4,41.8,39.2,41.9,38.8,36.7,95,89,77,30.19,29.99,14,6,26,0.31
2012-4-5,47.2,41.6,36.7,41.1,37.5,34.9,96,86,71,30.24,30.18,11,4,18,0.03
2012-4-6,48.8,41.9,35.3,40.6,36.8,33.5,94,83,64,30.33,30.23,9,4,15,0.03
2012-4-7,60.0,48.3,40.5,45.6,38.0,34.4,86,69,43,30.23,30.02,13,7,24,0.00
2012-4-8,64.0,51.5,46.7,48.2,44.4,39.5,89,78,44,30.06,29.99,11,5,19,0.01
2012-4-9,58.2,50.3,45.5,49.8,46.8,42.2,94,88,72,30.01,29.80,7,4,12,0.02
2012-4-10,53.2,49.8,46.5,50.4,47.5,44.9,95,92,88,29.86,29.72,9,4,19,0.03
2012-4-11,53.3,49.0,45.4,49.3,46.2,43.9,96,90,81,29.80,29.70,12,5,23,0.08
2012-4-12,51.6,46.4,43.1,44.7,42.9,40.6,94,88,74,29.80,29.62,17,8,32,0.18
2012-4-13,48.8,45.9,42.6,45.9,43.5,41.3,96,92,86,29.95,29.77,9,4,16,0.36
2012-4-14,51.8,48.4,42.2,46.6,44.0,39.8,94,85,78,30.23,29.96,10,4,14,0.00
2012-4-15,51.6,46.6,40.0,48.4,43.9,38.3,99,90,76,30.24,30.06,11,5,24,0.30
2012-4-16,51.8,49.0,42.1,49.5,46.5,39.8,96,91,81,30.26,30.00,19,9,36,0.19
2012-4-17,51.4,44.7,38.8,46.7,42.0,37.2,95,90,74,30.26,30.00,14,6,24,0.15
2012-4-18,53.9,49.5,45.9,47.5,45.9,42.8,96,88,73,30.12,29.99,18,6,32,0.18
2012-4-19,52.5,49.7,44.3,51.4,48.2,41.9,98,95,88,30.18,30.03,14,9,31,0.84
2012-4-20,56.2,51.4,48.2,53.1,50.1,46.8,98,95,86,30.25,30.14,11,5,22,0.09
2012-4-21,62.0,54.1,46.9,55.0,50.8,45.5,97,89,73,30.15,29.97,8,3,13,0.01
2012-4-22,61.5,53.3,46.3,53.9,50.0,44.9,96,89,72,29.99,29.86,10,4,19,0.01
2012-4-23,55.6,51.0,46.8,52.8,49.5,45.8,97,95,89,29.97,29.86,9,4,18,0.01
2012-4-24,57.0,51.9,49.1,54.1,50.8,48.3,97,96,90,30.00,29.89,15,6,28,0.06
2012-4-25,52.9,51.7,47.5,52.1,50.8,46.5,97,97,96,29.90,29.67,15,10,30,0.78
2012-4-26,52.2,48.3,45.9,46.6,44.2,41.7,97,86,71,30.17,29.68,21,10,37,0.18
2012-4-27,52.8,49.1,44.0,47.7,44.6,41.5,93,84,78,30.35,30.17,11,6,20,0.02
2012-4-28,54.9,50.7,46.5,51.3,47.7,44.0,94,90,81,30.30,30.22,9,4,14,0.01
2012-4-29,55.0,51.7,49.2,51.6,49.4,46.8,96,92,86,30.22,29.90,9,4,18,0.04
2012-4-30,50.9,48.9,44.9,49.9,46.4,41.0,97,91,79,30.10,29.86,18,12,31,0.10
2012-5-1,50.4,46.7,43.4,44.2,42.1,39.7,94,84,74,30.10,30.03,15,7,23,0.16
2012-5-2,50.5,46.2,41.7,44.6,42.5,39.8,95,87,74,30.05,29.69,9,4,13,0.38
2012-5-3,50.8,48.6,44.4,49.9,46.5,41.1,97,92,86,30.08,29.52,24,13,36,0.33
2012-5-4,50.7,46.6,43.1,44.3,42.2,38.6,95,85,74,30.47,30.08,13,5,21,0.14
2012-5-5,52.9,46.7,41.1,45.2,41.9,38.5,95,84,72,30.56,30.47,8,4,15,0.03
2012-5-6,57.1,49.7,41.7,49.7,45.0,39.3,92,84,74,30.50,30.32,10,4,20,0.03
2012-5-7,60.3,52.4,43.6,53.1,48.8,42.0,96,88,66,30.32,30.15,9,4,19,0.00
2012-5-8,56.7,51.4,47.7,52.2,48.0,40.8,94,88,77,30.24,30.17,14,7,28,0.00
2012-5-9,51.0,47.6,45.5,41.3,39.4,38.3,78,73,65,30.33,30.24,12,6,26,0.00
2012-5-10,51.1,47.9,38.8,43.1,39.8,33.9,83,73,58,30.45,30.27,16,8,30,0.00
2012-5-11,58.3,48.3,37.1,47.7,41.7,34.8,92,79,59,30.28,30.09,12,4,22,0.00
2012-5-12,45.9,45.4,45.0,42.2,41.9,41.4,88,87,87,30.11,30.10,3,1,4,0.00
2012-5-15,57.2,54.5,51.5,52.3,49.3,46.1,87,83,78,30.14,30.07,10,6,18,0.00
2012-5-16,54.3,51.1,48.1,48.9,46.7,44.6,92,85,78,30.18,30.10,14,7,30,0.00
2012-5-17,55.6,49.7,44.7,47.0,43.9,40.7,88,80,70,30.15,30.11,9,4,16,0.00
2012-5-21,52.6,51.4,50.5,51.8,50.6,49.4,98,97,96,30.05,29.94,13,9,26,0.39
2012-5-22,53.8,50.4,47.9,50.8,48.4,45.3,97,93,84,30.15,29.96,22,10,43,0.37
2012-5-23,51.9,49.5,47.3,50.4,48.1,45.3,97,95,90,30.15,30.07,11,6,20,0.28
2012-5-24,53.9,50.2,48.2,49.6,47.6,45.5,100,91,78,30.07,29.87,16,6,22,0.09
2012-5-25,58.0,52.8,49.5,52.5,49.3,45.8,93,88,82,29.97,29.87,13,6,25,0.09
2012-5-26,54.9,52.2,50.6,52.0,50.0,48.7,95,92,89,30.09,29.96,7,3,11,0.00
2012-5-27,55.0,51.7,49.8,51.2,49.3,48.0,96,92,86,30.14,30.08,10,6,18,0.01
2012-5-28,55.7,51.8,47.4,50.4,46.9,43.4,96,84,71,30.18,30.11,11,4,15,0.01
2012-5-29,57.1,50.7,41.7,48.0,44.9,39.7,94,81,69,30.21,30.15,8,4,17,0.01
2012-5-30,58.4,51.6,43.3,51.8,47.7,41.3,94,87,78,30.26,30.20,9,4,13,0.00
2012-5-31,61.1,56.2,53.9,56.3,52.4,46.6,96,87,73,30.22,30.06,9,3,12,0.00
2012-6-1,57.7,55.5,53.1,56.9,54.6,52.3,97,97,95,30.06,29.92,7,3,11,0.07
2012-6-2,58.0,54.2,50.9,54.4,50.9,44.4,100,89,74,30.05,29.93,9,4,14,0.03
2012-6-3,57.4,52.5,48.5,48.4,46.4,44.8,90,80,69,30.03,29.85,9,3,15,0.08
2012-6-4,52.9,50.1,47.0,51.8,48.6,45.1,96,94,91,30.01,29.73,19,4,31,0.34
2012-6-5,55.8,51.0,46.2,49.3,46.3,43.5,94,84,73,30.29,30.01,12,5,19,0.38
2012-6-6,56.8,51.4,45.4,49.6,46.3,42.7,92,83,71,30.28,30.00,10,5,14,0.05
2012-6-7,57.8,52.9,49.1,51.5,50.0,46.6,96,90,76,30.05,29.85,16,8,29,0.32
2012-6-8,54.0,49.5,46.8,49.5,46.6,44.6,94,90,81,30.10,30.00,14,7,25,0.32
2012-6-9,57.8,50.6,41.8,51.1,47.1,40.5,96,88,77,30.34,30.10,10,4,13,0.32
2012-6-10,59.3,52.4,43.8,50.4,47.2,41.9,94,83,67,30.33,30.21,9,4,17,0.00
2012-6-11,58.9,53.4,46.0,55.2,50.6,44.1,94,90,84,30.21,30.12,11,4,14,0.00
2012-6-12,57.3,55.1,52.0,56.7,54.2,50.6,98,97,93,30.17,30.07,10,5,20,0.10
2012-6-13,58.3,53.4,50.0,52.2,49.0,46.3,98,85,71,30.24,30.16,13,6,26,0.11
2012-6-14,57.2,52.2,46.2,49.2,46.7,42.8,89,82,74,30.17,30.14,8,4,20,0.00
2012-6-15,61.4,53.8,45.5,55.0,50.3,43.6,94,88,76,30.20,30.14,9,4,17,0.00
2012-6-16,60.9,56.2,52.3,58.6,54.7,51.0,97,95,90,30.20,30.06,9,3,13,0.00
2012-6-17,57.4,54.7,51.3,56.3,53.5,50.0,98,95,89,30.09,30.02,13,4,18,0.02
2012-6-18,56.6,52.6,50.3,52.1,49.9,48.4,97,90,82,30.15,30.01,15,6,23,0.05
2012-6-19,57.7,53.4,50.8,52.2,50.2,48.9,96,89,79,30.19,30.12,9,4,14,0.04
2012-6-20,61.5,54.1,46.1,55.8,51.0,44.7,96,90,81,30.17,29.99,8,4,17,0.04
2012-6-21,60.7,56.2,53.0,54.9,52.8,51.1,95,89,80,30.00,29.87,9,4,16,0.00
2012-6-22,55.1,53.1,49.9,53.5,51.6,49.1,97,94,90,29.87,29.78,10,5,18,0.53
2012-6-23,57.6,52.7,49.1,52.1,49.4,47.9,97,89,78,29.94,29.79,11,4,19,0.03
2012-6-24,60.0,54.5,49.0,54.2,50.0,46.8,96,85,76,30.09,29.92,10,4,15,0.07
2012-6-25,58.8,54.2,51.4,53.7,51.1,48.4,94,89,83,30.04,29.98,7,3,11,0.03
2012-6-26,61.7,55.8,50.8,54.4,51.3,47.8,95,85,72,30.13,30.00,9,4,15,0.10
2012-6-27,65.6,57.4,47.8,56.6,51.6,46.1,94,82,64,30.07,29.94,8,4,15,0.10
2012-6-28,62.0,56.6,50.8,55.9,52.4,-99.9,93,88,74,30.07,29.95,12,0,24,0.02
2012-6-29,62.5,60.2,58.2,58.6,57.0,55.3,94,89,84,30.09,30.04,9,6,19,0.02
2012-6-30,61.4,59.5,56.0,59.9,58.0,55.2,97,95,87,30.05,29.98,7,3,14,0.09
2012-7-1,62.2,57.8,55.0,56.2,54.1,51.1,100,88,74,30.11,30.02,9,4,16,0.01
2012-7-2,60.9,57.1,54.5,54.0,52.5,51.3,95,85,74,30.05,29.99,12,5,21,0.01
2012-7-3,60.6,56.7,52.5,55.0,51.1,48.1,96,82,70,30.20,30.00,17,8,27,0.05
2012-7-4,61.4,55.0,46.3,53.8,49.6,44.1,93,82,71,30.12,29.99,9,4,19,0.00
2012-7-5,61.9,48.0,48.9,55.7,30.6,-99.9,94,75,79,30.08,30.00,9,-137,18,0.00
2012-7-6,62.4,57.7,53.5,54.7,52.8,51.0,93,84,75,30.14,30.08,8,4,19,0.00
2012-7-7,62.2,57.4,50.9,56.2,53.5,48.5,93,87,79,30.14,30.07,10,5,21,0.00
2012-7-8,59.4,56.0,54.2,55.3,53.4,52.1,93,91,86,30.10,30.07,11,7,22,0.00
2012-7-9,61.3,56.2,52.5,55.1,52.5,49.3,93,87,79,30.19,30.09,11,7,23,0.00
2012-7-10,61.7,55.5,53.2,55.3,49.0,-99.9,95,84,78,30.20,30.08,10,-18,21,0.00
2012-7-11,55.5,52.6,51.5,54.1,51.4,50.2,97,96,94,30.10,30.08,6,2,12,0.00
2012-7-12,60.0,56.1,52.8,55.6,53.2,51.1,96,90,83,30.09,30.05,6,4,12,0.00
2012-7-13,64.4,58.6,55.4,57.6,54.2,51.9,91,86,76,30.09,30.01,8,4,18,0.00
2012-7-14,59.0,56.8,54.6,56.5,54.6,51.6,97,92,88,30.05,30.00,5,2,10,0.00
2012-7-15,58.8,55.9,53.9,56.5,54.6,52.8,98,96,89,30.08,29.96,6,2,14,0.10
2012-7-16,61.4,56.5,53.2,58.1,54.9,52.1,98,94,86,29.96,29.84,8,2,11,0.05
2012-7-17,58.4,56.6,54.2,57.5,55.6,53.4,97,96,94,30.03,29.85,10,4,17,0.04
2012-7-18,60.5,57.1,54.0,59.3,55.8,53.2,98,95,89,30.08,30.01,7,3,14,0.03
2012-7-19,64.2,58.9,55.4,59.3,56.3,53.5,97,91,83,30.08,29.98,7,3,14,0.02
2012-7-20,60.4,57.2,54.9,57.1,55.6,54.1,98,94,86,30.25,30.03,13,6,24,0.01
2012-7-21,64.9,59.4,55.0,60.3,56.2,53.5,97,90,77,30.24,30.14,8,3,15,0.01
2012-7-22,63.0,59.0,54.9,56.0,53.5,50.9,89,82,74,30.22,30.12,8,3,15,0.00
2012-7-23,63.6,58.3,51.9,56.0,52.8,48.8,91,82,70,30.26,30.13,17,7,33,0.00
2012-7-24,62.2,56.4,51.8,56.8,53.2,49.4,95,89,80,30.14,30.01,11,5,24,0.00
2012-7-25,61.2,56.3,53.0,57.0,54.1,51.5,96,92,85,30.05,30.00,8,4,16,0.00
2012-7-26,57.1,55.0,52.8,55.8,53.8,51.6,97,96,94,30.04,30.00,6,2,9,0.01
2012-7-27,61.2,56.9,54.1,57.6,55.3,53.0,98,94,87,30.15,30.04,7,3,10,0.01
2012-7-28,63.9,59.1,55.3,58.0,55.6,53.4,94,88,78,30.18,30.14,7,3,16,0.00
2012-7-29,63.7,59.6,55.5,57.7,55.6,53.1,92,87,79,30.20,30.16,8,4,15,0.00
2012-7-30,65.0,59.6,56.5,57.7,54.5,51.9,90,83,74,30.20,30.14,9,4,17,0.00
2012-7-31,62.6,58.6,55.4,55.2,52.6,50.3,90,81,72,30.20,30.13,12,5,24,0.00
2012-8-1,63.1,57.1,53.0,54.9,52.4,50.0,92,85,73,30.26,30.19,9,5,22,0.00
2012-8-2,63.9,57.0,50.7,58.1,53.7,48.0,95,89,80,30.22,30.09,13,5,25,0.00
2012-8-3,61.7,56.5,52.8,56.7,54.0,51.7,97,91,81,30.10,29.84,12,4,19,0.00
2012-8-4,82.0,60.7,51.9,59.8,53.9,50.1,95,81,44,29.93,29.81,9,4,18,0.00
2012-8-5,60.0,56.7,51.5,57.6,55.1,50.1,97,94,89,30.09,29.94,11,6,21,0.00
2012-8-6,60.7,57.2,54.9,56.4,55.1,54.1,97,93,84,30.17,30.08,10,6,19,0.00
2012-8-7,62.5,58.3,56.1,55.5,54.0,52.6,92,86,75,30.14,30.10,9,3,12,0.00
2012-8-8,64.1,60.0,57.1,59.5,55.4,52.1,92,85,74,30.23,30.13,9,3,12,0.00
2012-8-9,64.9,59.6,53.3,59.1,56.0,51.9,96,88,79,30.20,30.13,11,5,26,0.00
2012-8-10,62.9,58.6,54.8,56.2,54.4,52.2,92,86,77,30.15,30.06,11,6,25,0.00
2012-8-11,61.9,54.8,49.9,57.2,52.7,48.3,96,92,85,30.06,29.92,13,4,25,0.00
2012-8-12,60.2,54.6,50.0,57.4,52.9,49.1,98,94,88,30.00,29.93,13,5,24,0.01
2012-8-13,61.6,55.9,52.2,56.5,53.3,49.5,95,91,83,30.05,29.99,14,6,26,0.00
2012-8-14,63.0,54.7,47.4,59.0,52.7,46.0,97,93,85,30.02,29.90,12,5,23,0.00
2012-8-15,53.3,51.1,49.2,52.2,50.4,48.4,98,97,96,29.91,29.89,5,3,9,0.00
2012-8-17,55.9,54.0,52.3,53.9,52.4,50.7,96,94,91,30.06,30.02,7,4,15,0.00
2012-8-18,56.0,54.5,52.4,55.2,53.4,51.3,98,96,94,30.04,29.98,7,2,13,0.01
2012-8-19,58.6,55.7,53.2,55.9,54.0,51.2,97,94,89,30.08,30.03,5,2,9,0.00
2012-8-20,65.3,57.2,49.8,59.5,54.7,48.3,99,92,76,30.07,30.00,8,4,19,0.01
2012-8-21,66.1,58.9,54.0,61.1,56.3,53.2,97,91,81,30.07,30.00,9,3,18,0.01
2012-8-22,64.8,58.4,50.1,56.2,53.2,48.2,95,83,70,30.11,30.05,13,6,27,0.00
2012-8-23,63.1,58.3,51.9,54.4,51.0,46.6,90,77,59,30.16,30.08,13,6,25,0.00
2012-8-24,63.3,56.0,47.7,53.9,49.2,44.1,89,78,61,30.18,29.94,16,6,30,0.00
2012-8-25,57.6,52.8,45.8,54.7,50.5,43.9,97,92,87,29.94,29.84,9,3,15,0.00
2012-8-26,60.7,55.6,52.7,54.5,52.6,50.1,96,90,72,30.00,29.81,15,7,31,0.15
2012-8-27,60.6,55.0,50.1,56.6,53.0,49.3,97,93,81,30.10,29.99,6,3,12,0.15
2012-8-28,59.5,54.9,51.2,56.9,53.2,50.4,98,94,89,30.13,30.06,9,3,14,0.00
2012-8-29,61.2,57.6,54.2,58.2,55.4,51.6,96,93,88,30.17,30.06,8,4,13,0.01
2012-8-30,64.3,56.1,47.7,58.3,52.5,46.3,96,88,78,30.06,29.91,11,5,27,0.01
2012-8-31,61.9,57.4,53.3,54.4,50.9,47.3,92,79,64,30.05,29.92,8,5,21,0.01
2012-9-1,62.7,56.1,47.6,54.6,51.5,44.9,93,85,70,30.18,30.05,7,3,20,0.00
2012-9-2,63.8,55.4,45.1,55.4,51.0,43.1,95,85,72,30.21,30.13,9,3,22,0.00
2012-9-3,62.5,55.5,48.6,55.9,52.5,46.7,96,90,78,30.15,30.09,14,5,25,0.00
2012-9-4,60.3,54.5,49.1,56.0,52.3,47.7,96,92,86,30.18,30.08,10,4,21,0.01
2012-9-5,57.9,53.6,49.7,55.5,52.2,48.6,97,95,89,30.08,29.98,9,4,20,0.00
2012-9-6,58.0,54.3,51.9,55.3,52.9,50.8,96,95,88,30.03,29.98,8,3,16,0.00
2012-9-7,56.6,53.0,48.9,55.1,52.0,48.1,98,96,94,30.11,30.03,7,3,18,0.00
2012-9-8,55.5,54.3,52.2,54.3,52.7,50.1,98,95,86,30.10,30.06,10,4,15,0.01
2012-9-9,59.2,56.5,54.0,55.5,52.4,50.3,93,86,77,30.11,30.04,7,4,16,0.01
2012-9-10,63.0,57.1,52.1,56.7,52.2,46.9,97,84,66,30.22,30.10,12,5,24,0.08
2012-9-11,59.8,54.2,45.8,51.4,46.9,41.2,85,77,68,30.25,30.16,15,5,27,0.00
2012-9-12,70.6,57.9,45.9,53.6,47.7,43.2,96,71,44,30.18,30.05,7,3,14,0.00
2012-9-13,74.3,60.1,47.0,52.2,44.5,36.8,94,60,31,30.11,30.05,11,4,18,0.00
2012-9-14,51.5,48.0,43.9,50.2,46.7,42.8,97,95,93,30.13,30.07,8,2,12,0.00
2012-9-15,60.5,54.5,50.1,55.6,51.5,48.9,97,90,79,30.20,30.13,13,4,24,0.00
2012-9-16,55.1,50.4,44.0,50.8,47.8,42.1,95,91,83,30.19,30.05,10,3,16,0.00
2012-9-17,75.8,54.5,46.2,56.6,49.4,44.8,98,85,48,30.04,30.01,8,2,12,0.01
2012-9-18,55.0,51.3,46.4,52.6,49.4,45.3,97,93,89,30.16,30.04,9,4,19,0.01
2012-9-19,57.0,54.8,53.5,52.4,51.2,50.4,90,88,83,30.18,30.13,7,2,10,0.01
2012-9-20,54.4,53.2,52.0,53.1,51.7,50.5,97,95,91,30.16,30.11,6,2,11,0.00
2012-9-21,57.8,53.7,47.5,54.6,51.7,45.6,97,93,78,30.18,30.14,5,1,8,0.01
2012-9-22,59.5,52.7,44.5,54.4,50.0,43.2,97,90,79,30.19,30.13,7,3,12,0.01
2012-9-23,62.7,55.5,50.1,55.1,51.8,47.1,95,87,74,30.14,30.10,9,2,18,0.01
2012-9-24,59.9,53.4,46.5,55.4,50.5,44.9,96,90,80,30.17,30.11,10,4,19,0.00
2012-9-25,59.0,54.4,47.0,53.5,49.5,43.7,96,84,71,30.16,30.09,12,4,23,0.00
2012-9-26,54.5,48.9,41.9,51.2,46.7,40.0,96,92,85,30.11,30.01,10,3,19,0.01
2012-9-27,63.1,53.2,44.9,55.1,49.8,43.6,100,89,72,30.02,29.91,7,2,12,0.01
2012-9-28,58.0,53.0,49.3,54.0,50.6,47.2,96,92,84,30.06,29.93,8,3,15,0.01
2012-9-29,57.7,53.4,48.7,53.2,50.1,44.9,97,89,78,30.27,30.05,15,5,29,0.00
2012-9-30,59.9,51.6,44.0,51.1,46.9,41.8,94,84,72,30.36,30.24,10,3,20,0.00
2012-10-1,67.8,57.3,48.6,55.8,49.2,43.6,96,76,46,30.24,30.11,14,6,25,0.00
2012-10-2,55.4,52.1,43.6,52.3,46.2,37.0,95,81,64,30.20,30.14,13,6,23,0.00
2012-10-3,72.3,55.5,40.6,43.4,36.0,29.0,90,55,21,30.18,30.07,11,3,23,0.00
2012-10-4,66.8,56.2,45.2,44.7,36.6,31.4,70,49,35,30.15,30.08,8,3,16,0.00
2012-10-5,53.3,47.7,42.9,47.9,44.5,38.4,95,89,70,30.19,30.13,5,2,7,0.00
2012-10-6,62.1,51.7,42.9,45.2,40.5,34.2,93,68,36,30.16,30.00,7,3,13,0.00
2012-10-7,55.3,49.2,42.9,48.1,40.3,29.0,95,72,42,30.02,29.95,6,2,9,0.00
2012-10-8,55.1,50.8,46.3,49.8,47.5,44.9,95,89,79,30.08,29.99,8,3,14,0.00
2012-10-9,56.8,52.6,44.9,50.2,47.8,42.4,92,84,75,30.11,30.03,8,2,16,0.00
2012-10-10,53.8,46.9,42.5,48.2,44.7,40.3,95,92,79,30.07,29.97,6,2,15,0.00
2012-10-11,53.8,46.3,39.2,50.2,44.2,37.9,97,93,82,29.99,29.86,6,3,9,0.01
2012-10-12,52.2,50.9,49.8,51.4,49.4,47.6,97,95,88,30.12,29.91,15,7,26,1.63
2012-10-13,56.9,54.1,51.8,56.3,53.4,51.0,98,98,97,30.27,30.11,13,9,27,0.01
2012-10-14,58.1,56.2,53.9,57.3,55.5,53.0,98,98,96,30.20,29.98,18,11,37,1.11
2012-10-15,58.3,55.3,52.7,57.7,54.7,52.0,98,98,97,30.01,29.77,21,13,45,1.66
2012-10-16,56.8,52.6,45.3,54.9,51.4,43.8,100,96,89,30.32,29.81,14,2,22,1.68
2012-10-17,57.1,50.3,43.9,50.1,46.3,42.8,97,87,74,30.33,30.17,8,4,15,0.01
2012-10-18,72.0,57.0,50.8,52.1,47.1,43.8,86,71,41,30.17,29.92,13,5,23,0.01
2012-10-19,56.2,53.8,50.9,53.6,52.2,48.1,98,94,77,29.98,29.88,15,8,27,0.21
2012-10-20,52.6,49.8,45.7,50.6,46.6,43.2,98,89,80,30.04,29.93,14,6,24,0.11
2012-10-21,51.9,46.7,42.6,49.0,44.3,41.0,98,91,79,29.95,29.69,8,5,16,0.22
2012-10-22,50.9,46.6,45.0,45.7,43.4,41.2,94,88,76,29.72,29.56,16,6,28,0.13
2012-10-23,47.1,44.5,43.3,45.1,42.0,40.4,94,91,86,29.89,29.72,10,6,19,0.59
2012-10-24,52.5,46.7,42.2,47.5,43.9,40.6,95,90,81,30.20,29.84,13,6,24,0.14
2012-10-25,56.2,48.0,40.9,48.0,43.2,-99.9,95,86,67,30.41,30.20,12,5,19,0.17
2012-10-26,53.4,51.6,49.2,51.4,48.6,44.7,96,90,79,30.28,30.15,14,8,27,0.00
2012-10-27,55.2,53.4,51.0,54.5,52.4,49.6,98,96,93,30.16,29.97,17,11,32,1.25
2012-10-28,58.2,55.7,53.9,57.5,55.1,53.3,98,98,98,30.02,29.91,15,9,29,1.86
2012-10-29,57.4,55.3,54.2,56.8,54.6,53.6,98,98,97,30.10,29.90,20,8,38,0.19
2012-10-30,59.2,56.8,55.0,58.3,56.1,54.2,98,98,96,30.00,29.78,17,12,32,0.84
2012-10-31,56.6,55.1,52.4,55.5,53.6,51.0,98,95,88,29.77,29.64,16,8,32,1.06
2012-11-1,55.6,54.2,52.7,54.8,53.0,51.0,100,96,88,30.04,29.69,21,11,37,0.09
2012-11-2,55.1,53.0,51.1,52.8,50.9,49.1,95,93,86,30.03,29.96,9,6,19,0.21
2012-11-3,56.8,55.1,52.9,56.2,54.5,51.8,98,98,96,30.19,29.98,14,6,25,0.02
2012-11-4,59.9,57.8,55.7,59.0,57.2,55.1,98,98,96,30.36,30.18,10,4,21,0.05
2012-11-5,63.4,56.8,53.9,62.5,55.9,53.3,98,97,93,30.38,30.09,11,3,17,0.08
2012-11-6,56.7,53.4,49.9,54.7,52.6,49.1,100,97,93,30.17,30.04,9,3,18,0.04
2012-11-7,54.2,48.3,42.7,50.8,45.9,41.1,98,92,77,30.21,29.93,6,2,10,0.04
2012-11-8,47.7,43.4,39.4,44.5,41.7,38.4,96,94,84,29.92,29.77,8,3,20,0.09
2012-11-9,47.9,42.0,36.1,44.2,40.1,34.8,97,93,84,29.95,29.87,14,3,24,0.18
2012-11-10,49.4,40.4,35.0,43.8,38.7,34.0,97,94,78,30.22,29.95,9,6,15,0.10
2012-11-11,51.2,46.6,41.7,48.1,43.9,39.4,94,90,85,30.24,30.15,13,7,29,0.26
2012-11-12,53.0,51.3,49.4,52.2,50.1,48.1,100,95,89,30.26,30.12,17,6,34,0.17
2012-11-13,53.9,50.7,47.2,52.8,49.6,46.1,97,96,93,30.26,30.17,6,3,11,0.02
2012-11-14,54.9,50.3,44.1,51.9,48.6,42.5,97,94,86,30.30,30.18,7,2,12,0.03
2012-11-15,49.4,44.6,42.2,45.1,42.7,40.6,96,93,85,30.18,30.05,11,6,19,0.01
2012-11-17,54.8,47.8,43.4,53.1,45.6,41.5,96,92,87,29.80,29.57,18,8,28,0.65
2012-11-18,54.3,49.7,45.7,52.0,47.5,43.3,95,92,89,29.83,29.60,28,13,54,1.09
2012-11-19,57.2,54.4,52.1,54.8,52.1,-99.9,97,93,88,29.74,29.53,31,14,56,1.46
2012-11-20,54.4,41.4,46.3,52.3,21.7,-99.9,96,76,82,29.75,29.58,28,-172,48,0.59
2012-11-21,51.4,47.1,40.4,46.6,40.8,-99.9,95,81,69,30.31,29.63,25,0,42,0.04
2012-11-22,53.2,46.1,40.5,45.9,41.5,38.1,92,84,72,30.33,30.23,10,6,15,0.04
2012-11-23,56.8,52.1,46.3,52.1,48.7,39.2,97,88,73,30.26,30.13,18,9,33,1.34
2012-11-24,51.5,48.4,39.4,50.7,47.1,38.1,98,95,91,30.27,30.19,8,2,13,0.01
2012-11-25,50.3,41.5,37.5,44.5,38.9,35.6,97,91,79,30.28,30.05,9,3,14,0.01
2012-11-26,55.0,47.6,39.8,46.1,40.6,34.6,91,77,59,30.07,29.99,12,6,20,0.01
2012-11-27,54.1,48.5,43.6,47.6,43.5,38.6,91,83,75,30.05,29.81,14,8,24,0.00
2012-11-28,57.9,51.1,44.2,51.0,44.1,37.6,93,77,65,29.82,29.54,18,11,30,0.06
2012-11-29,58.6,52.5,49.7,50.8,48.0,44.3,93,85,59,29.62,29.43,14,8,28,0.30
2012-11-30,56.1,54.0,47.6,53.2,51.5,46.0,95,92,87,29.52,29.40,24,15,44,0.87
2012-12-1,53.6,51.6,48.8,50.1,48.0,45.2,95,88,79,29.74,29.29,20,12,35,0.53
2012-12-2,52.6,50.3,46.7,49.5,46.7,42.3,96,88,77,29.97,29.28,22,13,34,0.31
2012-12-3,52.8,51.0,47.5,50.0,48.4,45.6,95,91,84,30.05,29.59,19,11,34,0.65
2012-12-4,53.7,51.6,49.4,53.1,50.3,44.5,100,95,81,30.02,29.58,31,14,57,0.97
2012-12-5,51.3,40.0,40.5,45.0,20.9,-99.9,94,70,66,30.27,30.02,14,-142,21,0.97
2012-12-6,49.5,42.2,39.7,46.4,33.0,-99.9,95,85,86,30.28,30.22,13,-64,22,0.29
2012-12-7,50.7,47.9,43.8,47.4,44.6,40.3,94,88,79,30.28,30.19,19,8,28,0.08
2012-12-8,46.6,43.4,41.5,44.9,41.7,39.5,96,94,83,30.37,30.26,8,2,11,0.18
2012-12-9,50.6,46.1,42.5,49.8,45.1,41.4,97,96,95,30.41,30.36,7,4,13,0.09
2012-12-10,50.8,47.8,45.1,50.0,46.7,43.8,98,96,94,30.46,30.14,6,2,13,0.11
2012-12-11,48.4,46.2,44.4,46.6,43.5,39.3,96,90,79,30.14,29.66,21,9,30,0.59
2012-12-12,46.5,43.6,40.4,42.5,39.9,38.2,95,87,78,29.89,29.75,13,5,24,0.02
2012-12-13,45.6,40.7,35.0,42.0,38.6,33.7,96,92,85,30.05,29.85,8,5,16,0.07
2012-12-14,49.0,42.4,38.6,44.0,38.8,35.6,97,88,68,29.98,29.85,8,4,17,0.25
2012-12-15,46.9,42.5,38.4,44.4,38.9,34.7,95,87,69,29.94,29.61,23,10,39,0.54
2012-12-16,52.5,47.9,43.7,50.9,44.4,37.7,96,88,69,29.86,29.23,34,18,56,0.82
2012-12-17,49.6,44.7,39.3,44.7,38.1,32.4,90,78,60,30.03,29.36,36,21,58,0.06
2012-12-18,44.2,40.7,36.4,36.9,34.7,30.8,90,79,66,30.08,30.00,23,8,33,0.10
2012-12-19,50.0,44.6,38.7,45.1,41.5,35.8,92,89,80,30.03,29.58,24,14,51,1.30
2012-12-20,46.9,39.1,35.2,45.1,37.2,33.9,96,93,89,29.79,29.59,20,9,39,0.54
2012-12-21,44.5,41.7,38.6,41.0,39.1,35.6,93,90,84,29.75,29.58,13,8,21,0.34
2012-12-22,48.4,42.1,39.7,43.6,39.2,37.8,94,90,78,29.76,29.50,21,9,34,0.36
2012-12-23,46.6,42.2,39.8,41.8,39.4,37.8,95,90,79,29.94,29.64,20,8,28,0.17
2012-12-24,46.3,43.9,40.3,43.1,40.5,37.9,95,88,79,30.22,29.94,16,6,25,0.02
2012-12-25,50.1,45.1,39.4,48.7,43.1,37.0,96,93,85,30.00,29.62,17,8,29,0.49
2012-12-26,47.3,45.3,43.6,45.1,42.6,38.5,96,90,80,30.08,29.70,18,8,26,0.19
2012-12-27,45.8,42.3,37.5,42.7,40.0,36.2,96,92,85,30.20,30.08,7,4,12,0.01
2012-12-28,43.3,41.7,39.2,41.5,39.7,36.8,99,92,90,30.15,30.08,8,6,15,0.02
2012-12-29,46.1,40.7,36.4,42.1,38.1,34.3,92,90,85,30.22,30.14,9,5,16,0.02
2012-12-30,45.2,39.3,36.4,40.6,35.6,32.5,92,87,78,30.28,30.18,13,8,22,0.00
2012-12-31,42.4,38.5,35.5,39.5,35.6,32.8,92,89,84,30.36,30.21,13,9,22,0.01
2013-1-1,44.7,38.9,34.0,34.8,31.0,28.0,89,74,61,30.39,30.22,18,12,31,0.01